sensor_id;sensor_type;location;lat;lon;timestamp;P1;durP1;ratioP1;P2;durP2;ratioP2
48651;SDS011;34442;52.362;-1.302;2023-12-29T00:01:32;8.90;;;1.77;;
48651;SDS011;34442;52.362;-1.302;2023-12-29T00:03:57;9.02;;;1.90;;
48651;SDS011;34442;52.362;-1.302;2023-12-29T00:06:23;9.52;;;2.97;;
48651;SDS011;34442;52.362;-1.302;2023-12-29T00:08:48;11.23;;;2.85;;
48651;SDS011;34442;52.362;-1.302;2023-12-29T00:11:17;10.00;;;2.10;;
48651;SDS011;34442;52.362;-1.302;2023-12-29T00:13:44;9.70;;;2.53;;
48651;SDS011;34442;52.362;-1.302;2023-12-29T00:16:09;9.85;;;2.70;;
48651;SDS011;34442;52.362;-1.302;2023-12-29T00:18:36;8.30;;;2.22;;
48651;SDS011;34442;52.362;-1.302;2023-12-29T00:21:02;8.32;;;3.13;;
48651;SDS011;34442;52.362;-1.302;2023-12-29T00:23:29;5.90;;;1.50;;
48651;SDS011;34442;52.362;-1.302;2023-12-29T00:25:54;11.07;;;2.10;;
48651;SDS011;34442;52.362;-1.302;2023-12-29T00:28:19;12.23;;;2.35;;
48651;SDS011;34442;52.362;-1.302;2023-12-29T00:30:45;11.52;;;2.33;;
48651;SDS011;34442;52.362;-1.302;2023-12-29T00:33:10;8.50;;;2.20;;
48651;SDS011;34442;52.362;-1.302;2023-12-29T00:35:39;4.68;;;1.63;;
48651;SDS011;34442;52.362;-1.302;2023-12-29T00:38:05;6.80;;;1.88;;
48651;SDS011;34442;52.362;-1.302;2023-12-29T00:40:31;8.52;;;2.17;;
48651;SDS011;34442;52.362;-1.302;2023-12-29T00:42:57;7.25;;;1.83;;
48651;SDS011;34442;52.362;-1.302;2023-12-29T00:45:23;7.28;;;1.95;;
48651;SDS011;34442;52.362;-1.302;2023-12-29T00:47:48;5.22;;;1.42;;
48651;SDS011;34442;52.362;-1.302;2023-12-29T00:50:16;7.85;;;1.40;;
48651;SDS011;34442;52.362;-1.302;2023-12-29T00:52:41;6.72;;;1.30;;
48651;SDS011;34442;52.362;-1.302;2023-12-29T00:55:07;8.02;;;1.85;;
48651;SDS011;34442;52.362;-1.302;2023-12-29T00:57:32;8.25;;;1.88;;
48651;SDS011;34442;52.362;-1.302;2023-12-29T00:59:59;4.50;;;1.33;;
48651;SDS011;34442;52.362;-1.302;2023-12-29T01:02:25;2.75;;;1.08;;
48651;SDS011;34442;52.362;-1.302;2023-12-29T01:04:50;5.32;;;1.52;;
48651;SDS011;34442;52.362;-1.302;2023-12-29T01:07:15;4.47;;;1.45;;
48651;SDS011;34442;52.362;-1.302;2023-12-29T01:09:41;3.55;;;1.10;;
48651;SDS011;34442;52.362;-1.302;2023-12-29T01:12:06;5.80;;;1.55;;
48651;SDS011;34442;52.362;-1.302;2023-12-29T01:14:32;5.90;;;1.65;;
48651;SDS011;34442;52.362;-1.302;2023-12-29T01:16:57;3.22;;;1.00;;
48651;SDS011;34442;52.362;-1.302;2023-12-29T01:19:23;5.68;;;1.38;;
48651;SDS011;34442;52.362;-1.302;2023-12-29T01:21:48;5.45;;;1.85;;
48651;SDS011;34442;52.362;-1.302;2023-12-29T01:24:14;4.20;;;1.67;;
48651;SDS011;34442;52.362;-1.302;2023-12-29T01:26:39;10.02;;;2.05;;
48651;SDS011;34442;52.362;-1.302;2023-12-29T01:29:05;9.77;;;2.30;;
48651;SDS011;34442;52.362;-1.302;2023-12-29T01:31:31;7.38;;;2.20;;
48651;SDS011;34442;52.362;-1.302;2023-12-29T01:33:57;6.38;;;1.63;;
48651;SDS011;34442;52.362;-1.302;2023-12-29T01:36:23;7.65;;;2.28;;
48651;SDS011;34442;52.362;-1.302;2023-12-29T01:38:48;6.78;;;1.75;;
48651;SDS011;34442;52.362;-1.302;2023-12-29T01:41:14;6.13;;;1.75;;
48651;SDS011;34442;52.362;-1.302;2023-12-29T01:44:40;7.45;;;1.83;;
48651;SDS011;34442;52.362;-1.302;2023-12-29T01:46:43;6.65;;;1.80;;
48651;SDS011;34442;52.362;-1.302;2023-12-29T01:49:11;4.88;;;1.48;;
48651;SDS011;34442;52.362;-1.302;2023-12-29T01:51:38;8.65;;;1.90;;
48651;SDS011;34442;52.362;-1.302;2023-12-29T01:54:04;4.15;;;1.35;;
48651;SDS011;34442;52.362;-1.302;2023-12-29T01:56:29;4.35;;;1.35;;
48651;SDS011;34442;52.362;-1.302;2023-12-29T01:58:55;5.70;;;1.30;;
48651;SDS011;34442;52.362;-1.302;2023-12-29T02:01:21;6.72;;;1.60;;
48651;SDS011;34442;52.362;-1.302;2023-12-29T02:03:47;4.97;;;1.55;;
48651;SDS011;34442;52.362;-1.302;2023-12-29T02:06:13;3.05;;;1.20;;
48651;SDS011;34442;52.362;-1.302;2023-12-29T02:08:42;4.47;;;1.33;;
48651;SDS011;34442;52.362;-1.302;2023-12-29T02:11:07;5.35;;;1.63;;
48651;SDS011;34442;52.362;-1.302;2023-12-29T02:13:33;8.90;;;1.80;;
48651;SDS011;34442;52.362;-1.302;2023-12-29T02:16:00;4.95;;;1.40;;
48651;SDS011;34442;52.362;-1.302;2023-12-29T02:18:32;7.57;;;1.63;;
48651;SDS011;34442;52.362;-1.302;2023-12-29T02:21:02;4.45;;;1.10;;
48651;SDS011;34442;52.362;-1.302;2023-12-29T02:23:28;4.07;;;1.40;;
48651;SDS011;34442;52.362;-1.302;2023-12-29T02:25:54;5.32;;;1.48;;
48651;SDS011;34442;52.362;-1.302;2023-12-29T02:28:24;4.13;;;1.40;;
48651;SDS011;34442;52.362;-1.302;2023-12-29T02:30:56;7.50;;;1.60;;
48651;SDS011;34442;52.362;-1.302;2023-12-29T02:33:30;5.22;;;1.80;;
48651;SDS011;34442;52.362;-1.302;2023-12-29T02:36:01;6.57;;;2.90;;
48651;SDS011;34442;52.362;-1.302;2023-12-29T02:38:28;3.70;;;1.00;;
48651;SDS011;34442;52.362;-1.302;2023-12-29T02:40:57;4.78;;;1.48;;
48651;SDS011;34442;52.362;-1.302;2023-12-29T02:43:23;7.65;;;1.75;;
48651;SDS011;34442;52.362;-1.302;2023-12-29T02:45:49;8.52;;;2.50;;
48651;SDS011;34442;52.362;-1.302;2023-12-29T02:48:15;6.05;;;1.50;;
48651;SDS011;34442;52.362;-1.302;2023-12-29T02:50:40;7.90;;;1.98;;
48651;SDS011;34442;52.362;-1.302;2023-12-29T02:53:06;9.40;;;1.95;;
48651;SDS011;34442;52.362;-1.302;2023-12-29T02:55:31;6.25;;;1.45;;
48651;SDS011;34442;52.362;-1.302;2023-12-29T02:57:57;5.05;;;1.30;;
48651;SDS011;34442;52.362;-1.302;2023-12-29T03:00:22;4.15;;;1.10;;
48651;SDS011;34442;52.362;-1.302;2023-12-29T03:02:48;1.48;;;0.90;;
48651;SDS011;34442;52.362;-1.302;2023-12-29T03:05:13;4.28;;;1.48;;
48651;SDS011;34442;52.362;-1.302;2023-12-29T03:07:39;6.45;;;1.58;;
48651;SDS011;34442;52.362;-1.302;2023-12-29T03:10:05;8.18;;;1.40;;
48651;SDS011;34442;52.362;-1.302;2023-12-29T03:12:32;3.58;;;1.00;;
48651;SDS011;34442;52.362;-1.302;2023-12-29T03:14:57;2.17;;;0.90;;
48651;SDS011;34442;52.362;-1.302;2023-12-29T03:17:22;3.97;;;1.10;;
48651;SDS011;34442;52.362;-1.302;2023-12-29T03:19:48;5.40;;;1.23;;
48651;SDS011;34442;52.362;-1.302;2023-12-29T03:22:13;5.47;;;1.13;;
48651;SDS011;34442;52.362;-1.302;2023-12-29T03:24:40;2.95;;;0.80;;
48651;SDS011;34442;52.362;-1.302;2023-12-29T03:27:07;3.38;;;1.05;;
48651;SDS011;34442;52.362;-1.302;2023-12-29T03:29:32;2.22;;;0.80;;
48651;SDS011;34442;52.362;-1.302;2023-12-29T03:31:58;3.75;;;1.48;;
48651;SDS011;34442;52.362;-1.302;2023-12-29T03:34:23;3.63;;;0.90;;
48651;SDS011;34442;52.362;-1.302;2023-12-29T03:36:49;1.70;;;0.70;;
48651;SDS011;34442;52.362;-1.302;2023-12-29T03:39:14;1.77;;;0.70;;
48651;SDS011;34442;52.362;-1.302;2023-12-29T03:41:39;1.00;;;0.60;;
48651;SDS011;34442;52.362;-1.302;2023-12-29T03:44:05;1.58;;;0.60;;
48651;SDS011;34442;52.362;-1.302;2023-12-29T03:46:31;1.42;;;0.60;;
48651;SDS011;34442;52.362;-1.302;2023-12-29T03:48:56;0.80;;;0.65;;
48651;SDS011;34442;52.362;-1.302;2023-12-29T03:51:22;1.38;;;0.80;;
48651;SDS011;34442;52.362;-1.302;2023-12-29T03:53:47;3.00;;;1.00;;
48651;SDS011;34442;52.362;-1.302;2023-12-29T03:56:14;0.82;;;0.65;;
48651;SDS011;34442;52.362;-1.302;2023-12-29T03:58:41;2.28;;;0.77;;
48651;SDS011;34442;52.362;-1.302;2023-12-29T04:01:13;1.73;;;0.63;;
48651;SDS011;34442;52.362;-1.302;2023-12-29T04:03:40;4.35;;;0.90;;
48651;SDS011;34442;52.362;-1.302;2023-12-29T04:06:05;1.45;;;0.68;;
48651;SDS011;34442;52.362;-1.302;2023-12-29T04:08:31;1.55;;;0.75;;
48651;SDS011;34442;52.362;-1.302;2023-12-29T04:11:00;2.17;;;0.93;;
48651;SDS011;34442;52.362;-1.302;2023-12-29T04:13:26;3.03;;;0.90;;
48651;SDS011;34442;52.362;-1.302;2023-12-29T04:15:51;1.20;;;0.70;;
48651;SDS011;34442;52.362;-1.302;2023-12-29T04:18:17;2.90;;;0.90;;
48651;SDS011;34442;52.362;-1.302;2023-12-29T04:20:43;2.40;;;0.70;;
48651;SDS011;34442;52.362;-1.302;2023-12-29T04:23:08;3.22;;;0.85;;
48651;SDS011;34442;52.362;-1.302;2023-12-29T04:25:34;2.60;;;0.70;;
48651;SDS011;34442;52.362;-1.302;2023-12-29T04:28:00;3.20;;;1.58;;
48651;SDS011;34442;52.362;-1.302;2023-12-29T04:30:25;3.40;;;0.85;;
48651;SDS011;34442;52.362;-1.302;2023-12-29T04:32:51;1.55;;;0.70;;
48651;SDS011;34442;52.362;-1.302;2023-12-29T04:35:16;4.32;;;1.05;;
48651;SDS011;34442;52.362;-1.302;2023-12-29T04:37:44;3.20;;;0.85;;
48651;SDS011;34442;52.362;-1.302;2023-12-29T04:40:11;2.30;;;0.70;;
48651;SDS011;34442;52.362;-1.302;2023-12-29T04:42:36;3.85;;;0.95;;
48651;SDS011;34442;52.362;-1.302;2023-12-29T04:45:02;1.67;;;0.93;;
48651;SDS011;34442;52.362;-1.302;2023-12-29T04:47:28;1.67;;;0.80;;
48651;SDS011;34442;52.362;-1.302;2023-12-29T04:49:53;3.58;;;1.27;;
48651;SDS011;34442;52.362;-1.302;2023-12-29T04:52:19;3.88;;;0.88;;
48651;SDS011;34442;52.362;-1.302;2023-12-29T04:54:44;5.45;;;1.02;;
48651;SDS011;34442;52.362;-1.302;2023-12-29T04:57:10;3.60;;;0.88;;
48651;SDS011;34442;52.362;-1.302;2023-12-29T04:59:35;5.85;;;1.42;;
48651;SDS011;34442;52.362;-1.302;2023-12-29T05:02:01;2.25;;;0.70;;
48651;SDS011;34442;52.362;-1.302;2023-12-29T05:04:26;3.03;;;0.80;;
48651;SDS011;34442;52.362;-1.302;2023-12-29T05:06:51;3.53;;;1.00;;
48651;SDS011;34442;52.362;-1.302;2023-12-29T05:09:17;7.18;;;1.70;;
48651;SDS011;34442;52.362;-1.302;2023-12-29T05:11:42;2.28;;;0.90;;
48651;SDS011;34442;52.362;-1.302;2023-12-29T05:14:08;2.83;;;1.08;;
48651;SDS011;34442;52.362;-1.302;2023-12-29T05:16:34;6.03;;;1.30;;
48651;SDS011;34442;52.362;-1.302;2023-12-29T05:19:00;5.18;;;1.58;;
48651;SDS011;34442;52.362;-1.302;2023-12-29T05:21:25;4.47;;;1.15;;
48651;SDS011;34442;52.362;-1.302;2023-12-29T05:23:51;4.32;;;1.33;;
48651;SDS011;34442;52.362;-1.302;2023-12-29T05:26:17;4.30;;;1.27;;
48651;SDS011;34442;52.362;-1.302;2023-12-29T05:28:43;4.32;;;0.90;;
48651;SDS011;34442;52.362;-1.302;2023-12-29T05:31:09;3.03;;;0.73;;
48651;SDS011;34442;52.362;-1.302;2023-12-29T05:33:34;2.65;;;0.90;;
48651;SDS011;34442;52.362;-1.302;2023-12-29T05:36:05;3.35;;;0.85;;
48651;SDS011;34442;52.362;-1.302;2023-12-29T05:38:35;3.28;;;0.93;;
48651;SDS011;34442;52.362;-1.302;2023-12-29T05:41:04;1.17;;;0.90;;
48651;SDS011;34442;52.362;-1.302;2023-12-29T05:43:32;3.40;;;0.98;;
48651;SDS011;34442;52.362;-1.302;2023-12-29T05:45:59;2.65;;;1.00;;
48651;SDS011;34442;52.362;-1.302;2023-12-29T05:48:25;2.95;;;1.10;;
48651;SDS011;34442;52.362;-1.302;2023-12-29T05:50:50;4.45;;;1.17;;
48651;SDS011;34442;52.362;-1.302;2023-12-29T05:53:16;3.70;;;1.25;;
48651;SDS011;34442;52.362;-1.302;2023-12-29T05:55:42;5.88;;;1.20;;
48651;SDS011;34442;52.362;-1.302;2023-12-29T05:58:08;5.85;;;1.30;;
48651;SDS011;34442;52.362;-1.302;2023-12-29T06:00:35;5.18;;;1.58;;
48651;SDS011;34442;52.362;-1.302;2023-12-29T06:03:06;7.85;;;2.30;;
48651;SDS011;34442;52.362;-1.302;2023-12-29T06:05:32;5.22;;;1.38;;
48651;SDS011;34442;52.362;-1.302;2023-12-29T06:07:58;7.55;;;1.38;;
48651;SDS011;34442;52.362;-1.302;2023-12-29T06:10:23;5.25;;;1.08;;
48651;SDS011;34442;52.362;-1.302;2023-12-29T06:12:49;6.10;;;1.48;;
48651;SDS011;34442;52.362;-1.302;2023-12-29T06:15:14;5.75;;;1.27;;
48651;SDS011;34442;52.362;-1.302;2023-12-29T06:17:40;9.90;;;2.05;;
48651;SDS011;34442;52.362;-1.302;2023-12-29T06:20:06;7.72;;;1.60;;
48651;SDS011;34442;52.362;-1.302;2023-12-29T06:22:32;5.93;;;1.48;;
48651;SDS011;34442;52.362;-1.302;2023-12-29T06:24:58;5.38;;;1.40;;
48651;SDS011;34442;52.362;-1.302;2023-12-29T06:27:24;9.50;;;2.47;;
48651;SDS011;34442;52.362;-1.302;2023-12-29T06:29:50;9.90;;;1.83;;
48651;SDS011;34442;52.362;-1.302;2023-12-29T06:32:16;7.05;;;1.90;;
48651;SDS011;34442;52.362;-1.302;2023-12-29T06:34:41;6.75;;;1.63;;
48651;SDS011;34442;52.362;-1.302;2023-12-29T06:37:06;8.35;;;1.65;;
48651;SDS011;34442;52.362;-1.302;2023-12-29T06:39:32;7.70;;;1.90;;
48651;SDS011;34442;52.362;-1.302;2023-12-29T06:41:57;9.32;;;1.90;;
48651;SDS011;34442;52.362;-1.302;2023-12-29T06:44:23;5.57;;;1.73;;
48651;SDS011;34442;52.362;-1.302;2023-12-29T06:46:48;3.90;;;1.27;;
48651;SDS011;34442;52.362;-1.302;2023-12-29T06:49:14;5.72;;;1.30;;
48651;SDS011;34442;52.362;-1.302;2023-12-29T06:51:39;3.00;;;1.00;;
48651;SDS011;34442;52.362;-1.302;2023-12-29T06:54:06;3.00;;;1.10;;
48651;SDS011;34442;52.362;-1.302;2023-12-29T06:56:31;13.02;;;2.78;;
48651;SDS011;34442;52.362;-1.302;2023-12-29T06:58:57;5.35;;;1.45;;
48651;SDS011;34442;52.362;-1.302;2023-12-29T07:01:22;3.95;;;1.73;;
48651;SDS011;34442;52.362;-1.302;2023-12-29T07:03:48;5.35;;;1.40;;
48651;SDS011;34442;52.362;-1.302;2023-12-29T07:06:13;3.92;;;1.00;;
48651;SDS011;34442;52.362;-1.302;2023-12-29T07:08:39;4.55;;;1.08;;
48651;SDS011;34442;52.362;-1.302;2023-12-29T07:11:08;5.05;;;1.10;;
48651;SDS011;34442;52.362;-1.302;2023-12-29T07:13:36;3.33;;;1.52;;
48651;SDS011;34442;52.362;-1.302;2023-12-29T07:16:01;2.88;;;0.90;;
48651;SDS011;34442;52.362;-1.302;2023-12-29T07:18:27;2.05;;;0.80;;
48651;SDS011;34442;52.362;-1.302;2023-12-29T07:20:52;1.23;;;0.80;;
48651;SDS011;34442;52.362;-1.302;2023-12-29T07:23:18;2.50;;;1.00;;
48651;SDS011;34442;52.362;-1.302;2023-12-29T07:25:43;1.85;;;0.88;;
48651;SDS011;34442;52.362;-1.302;2023-12-29T07:28:08;2.53;;;1.27;;
48651;SDS011;34442;52.362;-1.302;2023-12-29T07:30:34;5.03;;;1.15;;
48651;SDS011;34442;52.362;-1.302;2023-12-29T07:32:59;4.20;;;1.35;;
48651;SDS011;34442;52.362;-1.302;2023-12-29T07:35:26;3.47;;;1.52;;
48651;SDS011;34442;52.362;-1.302;2023-12-29T07:37:51;3.45;;;1.02;;
48651;SDS011;34442;52.362;-1.302;2023-12-29T07:40:17;5.95;;;1.50;;
48651;SDS011;34442;52.362;-1.302;2023-12-29T07:42:42;5.22;;;1.40;;
48651;SDS011;34442;52.362;-1.302;2023-12-29T07:45:09;3.13;;;0.95;;
48651;SDS011;34442;52.362;-1.302;2023-12-29T07:47:35;3.70;;;0.85;;
48651;SDS011;34442;52.362;-1.302;2023-12-29T07:50:00;4.25;;;1.25;;
48651;SDS011;34442;52.362;-1.302;2023-12-29T07:52:26;6.78;;;1.90;;
48651;SDS011;34442;52.362;-1.302;2023-12-29T07:54:52;6.03;;;1.83;;
48651;SDS011;34442;52.362;-1.302;2023-12-29T07:57:17;2.85;;;1.00;;
48651;SDS011;34442;52.362;-1.302;2023-12-29T07:59:42;7.38;;;2.28;;
48651;SDS011;34442;52.362;-1.302;2023-12-29T08:02:08;4.97;;;1.45;;
48651;SDS011;34442;52.362;-1.302;2023-12-29T08:04:33;6.47;;;1.42;;
48651;SDS011;34442;52.362;-1.302;2023-12-29T08:06:59;5.53;;;1.67;;
48651;SDS011;34442;52.362;-1.302;2023-12-29T08:09:25;5.05;;;1.38;;
48651;SDS011;34442;52.362;-1.302;2023-12-29T08:11:51;2.65;;;1.20;;
48651;SDS011;34442;52.362;-1.302;2023-12-29T08:14:16;2.00;;;0.80;;
48651;SDS011;34442;52.362;-1.302;2023-12-29T08:16:42;2.20;;;0.85;;
48651;SDS011;34442;52.362;-1.302;2023-12-29T08:19:07;4.00;;;1.10;;
48651;SDS011;34442;52.362;-1.302;2023-12-29T08:21:33;4.93;;;0.90;;
48651;SDS011;34442;52.362;-1.302;2023-12-29T08:23:59;5.47;;;1.00;;
48651;SDS011;34442;52.362;-1.302;2023-12-29T08:26:24;4.20;;;1.20;;
48651;SDS011;34442;52.362;-1.302;2023-12-29T08:28:51;2.50;;;1.05;;
48651;SDS011;34442;52.362;-1.302;2023-12-29T08:31:17;4.47;;;1.15;;
48651;SDS011;34442;52.362;-1.302;2023-12-29T08:33:43;3.42;;;1.00;;
48651;SDS011;34442;52.362;-1.302;2023-12-29T08:36:09;2.33;;;0.98;;
48651;SDS011;34442;52.362;-1.302;2023-12-29T08:38:36;5.88;;;1.30;;
48651;SDS011;34442;52.362;-1.302;2023-12-29T08:41:02;3.17;;;1.05;;
48651;SDS011;34442;52.362;-1.302;2023-12-29T08:43:28;2.55;;;1.10;;
48651;SDS011;34442;52.362;-1.302;2023-12-29T08:45:53;3.30;;;1.30;;
48651;SDS011;34442;52.362;-1.302;2023-12-29T08:48:19;7.07;;;1.77;;
48651;SDS011;34442;52.362;-1.302;2023-12-29T08:50:44;4.03;;;1.00;;
48651;SDS011;34442;52.362;-1.302;2023-12-29T08:53:10;3.97;;;1.25;;
48651;SDS011;34442;52.362;-1.302;2023-12-29T08:55:35;5.30;;;1.38;;
48651;SDS011;34442;52.362;-1.302;2023-12-29T08:58:01;1.25;;;0.80;;
48651;SDS011;34442;52.362;-1.302;2023-12-29T09:00:26;3.22;;;1.10;;
48651;SDS011;34442;52.362;-1.302;2023-12-29T09:02:52;2.92;;;1.00;;
48651;SDS011;34442;52.362;-1.302;2023-12-29T09:05:20;4.53;;;1.00;;
48651;SDS011;34442;52.362;-1.302;2023-12-29T09:07:45;4.78;;;1.30;;
48651;SDS011;34442;52.362;-1.302;2023-12-29T09:10:11;4.93;;;1.20;;
48651;SDS011;34442;52.362;-1.302;2023-12-29T09:12:37;3.58;;;0.93;;
48651;SDS011;34442;52.362;-1.302;2023-12-29T09:15:04;5.90;;;1.70;;
48651;SDS011;34442;52.362;-1.302;2023-12-29T09:17:30;3.53;;;1.02;;
48651;SDS011;34442;52.362;-1.302;2023-12-29T09:19:56;3.83;;;1.15;;
48651;SDS011;34442;52.362;-1.302;2023-12-29T09:22:21;6.68;;;1.10;;
48651;SDS011;34442;52.362;-1.302;2023-12-29T09:24:49;2.92;;;0.98;;
48651;SDS011;34442;52.362;-1.302;2023-12-29T09:27:15;4.72;;;0.93;;
48651;SDS011;34442;52.362;-1.302;2023-12-29T09:29:41;3.42;;;1.10;;
48651;SDS011;34442;52.362;-1.302;2023-12-29T09:32:06;2.50;;;0.98;;
48651;SDS011;34442;52.362;-1.302;2023-12-29T09:34:32;3.10;;;1.15;;
48651;SDS011;34442;52.362;-1.302;2023-12-29T09:36:57;2.40;;;0.95;;
48651;SDS011;34442;52.362;-1.302;2023-12-29T09:39:23;3.55;;;1.20;;
48651;SDS011;34442;52.362;-1.302;2023-12-29T09:41:50;1.85;;;0.80;;
48651;SDS011;34442;52.362;-1.302;2023-12-29T09:44:19;2.88;;;0.98;;
48651;SDS011;34442;52.362;-1.302;2023-12-29T09:46:50;0.77;;;0.65;;
48651;SDS011;34442;52.362;-1.302;2023-12-29T09:49:21;1.85;;;0.80;;
48651;SDS011;34442;52.362;-1.302;2023-12-29T09:51:48;6.65;;;1.58;;
48651;SDS011;34442;52.362;-1.302;2023-12-29T09:54:14;4.32;;;1.15;;
48651;SDS011;34442;52.362;-1.302;2023-12-29T09:56:40;3.33;;;0.90;;
48651;SDS011;34442;52.362;-1.302;2023-12-29T09:59:08;1.30;;;0.73;;
48651;SDS011;34442;52.362;-1.302;2023-12-29T10:01:35;2.50;;;1.00;;
48651;SDS011;34442;52.362;-1.302;2023-12-29T10:04:01;5.72;;;1.65;;
48651;SDS011;34442;52.362;-1.302;2023-12-29T10:06:27;3.35;;;0.90;;
48651;SDS011;34442;52.362;-1.302;2023-12-29T10:08:59;4.65;;;1.23;;
48651;SDS011;34442;52.362;-1.302;2023-12-29T10:11:29;2.53;;;1.05;;
48651;SDS011;34442;52.362;-1.302;2023-12-29T10:13:59;1.65;;;0.90;;
48651;SDS011;34442;52.362;-1.302;2023-12-29T10:16:32;3.40;;;1.13;;
48651;SDS011;34442;52.362;-1.302;2023-12-29T10:19:09;2.92;;;1.00;;
48651;SDS011;34442;52.362;-1.302;2023-12-29T10:24:39;1.67;;;0.75;;
48651;SDS011;34442;52.362;-1.302;2023-12-29T10:27:07;3.55;;;0.82;;
48651;SDS011;34442;52.362;-1.302;2023-12-29T10:29:32;4.20;;;1.42;;
48651;SDS011;34442;52.362;-1.302;2023-12-29T10:31:58;3.40;;;1.10;;
48651;SDS011;34442;52.362;-1.302;2023-12-29T10:34:24;3.25;;;1.10;;
48651;SDS011;34442;52.362;-1.302;2023-12-29T10:36:54;3.20;;;1.05;;
48651;SDS011;34442;52.362;-1.302;2023-12-29T10:39:20;6.22;;;1.73;;
48651;SDS011;34442;52.362;-1.302;2023-12-29T10:41:46;4.53;;;1.40;;
48651;SDS011;34442;52.362;-1.302;2023-12-29T10:44:11;3.10;;;1.27;;
48651;SDS011;34442;52.362;-1.302;2023-12-29T10:46:41;4.20;;;1.10;;
48651;SDS011;34442;52.362;-1.302;2023-12-29T10:49:07;3.28;;;1.42;;
48651;SDS011;34442;52.362;-1.302;2023-12-29T10:51:36;3.75;;;1.08;;
48651;SDS011;34442;52.362;-1.302;2023-12-29T10:54:02;3.25;;;1.17;;
48651;SDS011;34442;52.362;-1.302;2023-12-29T10:56:28;3.83;;;1.13;;
48651;SDS011;34442;52.362;-1.302;2023-12-29T10:59:01;3.75;;;1.25;;
48651;SDS011;34442;52.362;-1.302;2023-12-29T11:01:29;4.72;;;0.98;;
48651;SDS011;34442;52.362;-1.302;2023-12-29T11:04:05;3.35;;;1.27;;
48651;SDS011;34442;52.362;-1.302;2023-12-29T11:06:44;3.50;;;1.00;;
48651;SDS011;34442;52.362;-1.302;2023-12-29T11:09:13;4.30;;;1.10;;
48651;SDS011;34442;52.362;-1.302;2023-12-29T11:11:39;4.68;;;1.00;;
48651;SDS011;34442;52.362;-1.302;2023-12-29T11:14:04;4.97;;;1.23;;
48651;SDS011;34442;52.362;-1.302;2023-12-29T11:16:30;2.70;;;0.90;;
48651;SDS011;34442;52.362;-1.302;2023-12-29T11:18:57;3.03;;;1.00;;
48651;SDS011;34442;52.362;-1.302;2023-12-29T11:21:24;2.70;;;1.02;;
48651;SDS011;34442;52.362;-1.302;2023-12-29T11:23:51;2.75;;;1.27;;
48651;SDS011;34442;52.362;-1.302;2023-12-29T11:26:18;4.57;;;1.23;;
48651;SDS011;34442;52.362;-1.302;2023-12-29T11:28:45;3.38;;;1.25;;
48651;SDS011;34442;52.362;-1.302;2023-12-29T11:31:13;1.83;;;0.80;;
48651;SDS011;34442;52.362;-1.302;2023-12-29T11:33:43;3.15;;;0.90;;
48651;SDS011;34442;52.362;-1.302;2023-12-29T11:36:18;3.72;;;1.45;;
48651;SDS011;34442;52.362;-1.302;2023-12-29T11:39:02;4.75;;;1.42;;
48651;SDS011;34442;52.362;-1.302;2023-12-29T11:44:24;5.55;;;1.20;;
48651;SDS011;34442;52.362;-1.302;2023-12-29T11:46:51;6.32;;;1.45;;
48651;SDS011;34442;52.362;-1.302;2023-12-29T11:49:17;3.25;;;0.88;;
48651;SDS011;34442;52.362;-1.302;2023-12-29T11:51:44;2.40;;;0.90;;
48651;SDS011;34442;52.362;-1.302;2023-12-29T11:54:23;3.40;;;0.95;;
48651;SDS011;34442;52.362;-1.302;2023-12-29T11:56:50;3.33;;;1.00;;
48651;SDS011;34442;52.362;-1.302;2023-12-29T11:59:17;5.40;;;1.20;;
48651;SDS011;34442;52.362;-1.302;2023-12-29T12:01:46;2.58;;;0.90;;
48651;SDS011;34442;52.362;-1.302;2023-12-29T12:07:03;1.40;;;0.73;;
48651;SDS011;34442;52.362;-1.302;2023-12-29T12:09:29;2.60;;;0.73;;
48651;SDS011;34442;52.362;-1.302;2023-12-29T12:11:58;2.10;;;0.60;;
48651;SDS011;34442;52.362;-1.302;2023-12-29T12:14:43;1.95;;;0.70;;
48651;SDS011;34442;52.362;-1.302;2023-12-29T12:17:10;1.00;;;0.60;;
48651;SDS011;34442;52.362;-1.302;2023-12-29T12:19:36;4.93;;;1.20;;
48651;SDS011;34442;52.362;-1.302;2023-12-29T12:22:01;2.22;;;0.95;;
48651;SDS011;34442;52.362;-1.302;2023-12-29T12:24:27;1.85;;;0.90;;
48651;SDS011;34442;52.362;-1.302;2023-12-29T12:26:56;0.82;;;0.57;;
48651;SDS011;34442;52.362;-1.302;2023-12-29T12:29:22;4.10;;;0.90;;
48651;SDS011;34442;52.362;-1.302;2023-12-29T12:31:54;1.05;;;0.70;;
48651;SDS011;34442;52.362;-1.302;2023-12-29T12:34:21;3.10;;;0.90;;
48651;SDS011;34442;52.362;-1.302;2023-12-29T12:36:50;2.35;;;0.88;;
48651;SDS011;34442;52.362;-1.302;2023-12-29T12:39:16;3.35;;;0.98;;
48651;SDS011;34442;52.362;-1.302;2023-12-29T12:41:42;3.22;;;1.40;;
48651;SDS011;34442;52.362;-1.302;2023-12-29T12:44:11;3.40;;;1.10;;
48651;SDS011;34442;52.362;-1.302;2023-12-29T12:49:15;3.35;;;1.20;;
48651;SDS011;34442;52.362;-1.302;2023-12-29T12:51:42;1.85;;;0.60;;
48651;SDS011;34442;52.362;-1.302;2023-12-29T12:54:08;1.30;;;0.63;;
48651;SDS011;34442;52.362;-1.302;2023-12-29T12:56:35;2.95;;;1.50;;
48651;SDS011;34442;52.362;-1.302;2023-12-29T12:59:01;2.13;;;0.90;;
48651;SDS011;34442;52.362;-1.302;2023-12-29T13:01:28;2.47;;;0.80;;
48651;SDS011;34442;52.362;-1.302;2023-12-29T13:03:56;2.75;;;0.75;;
48651;SDS011;34442;52.362;-1.302;2023-12-29T13:06:23;2.28;;;0.80;;
48651;SDS011;34442;52.362;-1.302;2023-12-29T13:08:49;2.97;;;0.90;;
48651;SDS011;34442;52.362;-1.302;2023-12-29T13:11:20;0.68;;;0.63;;
48651;SDS011;34442;52.362;-1.302;2023-12-29T13:13:47;2.22;;;0.70;;
48651;SDS011;34442;52.362;-1.302;2023-12-29T13:16:12;2.17;;;0.93;;
48651;SDS011;34442;52.362;-1.302;2023-12-29T13:18:41;1.45;;;0.70;;
48651;SDS011;34442;52.362;-1.302;2023-12-29T13:21:06;3.50;;;0.98;;
48651;SDS011;34442;52.362;-1.302;2023-12-29T13:23:33;2.35;;;0.80;;
48651;SDS011;34442;52.362;-1.302;2023-12-29T13:25:59;1.30;;;0.70;;
48651;SDS011;34442;52.362;-1.302;2023-12-29T13:28:31;1.13;;;0.60;;
48651;SDS011;34442;52.362;-1.302;2023-12-29T13:30:57;2.40;;;0.93;;
48651;SDS011;34442;52.362;-1.302;2023-12-29T13:36:11;2.60;;;0.70;;
48651;SDS011;34442;52.362;-1.302;2023-12-29T13:38:51;3.78;;;1.25;;
48651;SDS011;34442;52.362;-1.302;2023-12-29T13:41:21;1.45;;;0.63;;
48651;SDS011;34442;52.362;-1.302;2023-12-29T13:43:49;1.85;;;0.70;;
48651;SDS011;34442;52.362;-1.302;2023-12-29T13:46:17;3.58;;;0.90;;
48651;SDS011;34442;52.362;-1.302;2023-12-29T13:48:43;1.17;;;0.90;;
48651;SDS011;34442;52.362;-1.302;2023-12-29T13:51:12;2.88;;;1.00;;
48651;SDS011;34442;52.362;-1.302;2023-12-29T13:53:37;2.25;;;0.93;;
48651;SDS011;34442;52.362;-1.302;2023-12-29T13:56:06;3.80;;;0.80;;
48651;SDS011;34442;52.362;-1.302;2023-12-29T13:58:33;1.05;;;0.63;;
48651;SDS011;34442;52.362;-1.302;2023-12-29T14:00:58;4.10;;;0.90;;
48651;SDS011;34442;52.362;-1.302;2023-12-29T14:03:31;1.88;;;0.75;;
48651;SDS011;34442;52.362;-1.302;2023-12-29T14:06:00;3.53;;;1.05;;
48651;SDS011;34442;52.362;-1.302;2023-12-29T14:08:32;4.22;;;0.82;;
48651;SDS011;34442;52.362;-1.302;2023-12-29T14:10:59;2.30;;;0.90;;
48651;SDS011;34442;52.362;-1.302;2023-12-29T14:13:25;1.75;;;0.70;;
48651;SDS011;34442;52.362;-1.302;2023-12-29T14:15:51;3.75;;;0.95;;
48651;SDS011;34442;52.362;-1.302;2023-12-29T14:21:26;1.05;;;0.60;;
48651;SDS011;34442;52.362;-1.302;2023-12-29T14:24:08;1.42;;;0.82;;
48651;SDS011;34442;52.362;-1.302;2023-12-29T14:29:19;2.22;;;0.85;;
48651;SDS011;34442;52.362;-1.302;2023-12-29T14:31:46;2.20;;;0.70;;
48651;SDS011;34442;52.362;-1.302;2023-12-29T14:34:12;2.05;;;0.70;;
48651;SDS011;34442;52.362;-1.302;2023-12-29T14:36:39;1.10;;;0.50;;
48651;SDS011;34442;52.362;-1.302;2023-12-29T14:39:05;0.50;;;0.50;;
48651;SDS011;34442;52.362;-1.302;2023-12-29T14:41:31;1.30;;;0.60;;
48651;SDS011;34442;52.362;-1.302;2023-12-29T14:43:57;0.93;;;0.60;;
48651;SDS011;34442;52.362;-1.302;2023-12-29T14:46:23;1.35;;;0.50;;
48651;SDS011;34442;52.362;-1.302;2023-12-29T14:48:48;0.50;;;0.35;;
48651;SDS011;34442;52.362;-1.302;2023-12-29T14:51:14;0.98;;;0.63;;